AKDT,Max TemperatureF,Mean TemperatureF,Min TemperatureF,Max Dew PointF,MeanDew PointF,Min DewpointF,Max Humidity, Mean Humidity, Min Humidity, Max Sea Level PressureIn, Mean Sea Level PressureIn, Min Sea Level PressureIn, Max VisibilityMiles, Mean VisibilityMiles, Min VisibilityMiles, Max Wind SpeedMPH, Mean Wind SpeedMPH, Max Gust SpeedMPH,PrecipitationIn, CloudCover, Events, WindDirDegrees
2013-10-1,38,35,31,31,30,28,92,82,64,29.95,29.92,29.86,10,7,1,5,1,,T,7,Snow,74
2013-10-2,48,41,33,35,31,30,86,72,39,29.94,29.90,29.85,10,10,10,5,1,,0.00,7,,49
2013-10-3,52,42,32,33,31,28,89,68,32,29.86,29.74,29.61,10,10,10,6,3,,0.00,6,,48
2013-10-4,41,34,26,32,30,25,92,78,57,29.85,29.73,29.60,10,10,10,7,3,,0.00,5,,84
2013-10-5,46,36,26,31,30,23,89,77,46,29.86,29.78,29.68,10,10,7,10,4,,0.00,6,,40
2013-10-6,44,38,31,31,30,28,85,75,60,29.73,29.68,29.66,10,10,8,8,3,,0.00,7,Fog-Snow,146
2013-10-7,37,33,29,32,31,28,92,87,75,29.87,29.80,29.73,10,6,0,8,2,,0.01,7,Fog-Snow,69
2013-10-8,50,40,29,34,30,25,88,60,38,29.69,29.23,28.98,10,10,10,13,8,,T,7,Rain,52
2013-10-9,42,39,35,36,33,31,89,84,73,29.70,29.38,29.00,10,7,3,16,6,23,0.18,8,Rain-Snow,237
2013-10-10,41,33,25,31,28,22,89,78,53,29.72,29.69,29.64,10,10,9,9,4,,T,5,Snow,38
2013-10-11,47,38,28,31,29,26,89,76,39,29.84,29.79,29.70,10,10,10,6,1,,0.00,6,,18
2013-10-12,54,40,26,34,29,25,89,69,30,29.81,29.74,29.68,10,10,10,8,3,,0.00,5,,35
2013-10-13,49,44,38,36,30,28,86,58,35,29.67,29.53,29.41,10,10,6,10,6,,0.00,5,Rain,43
2013-10-14,45,38,30,37,33,29,96,86,58,29.93,29.78,29.60,10,9,6,5,2,,0.00,6,Fog-Rain,30
2013-10-15,48,41,34,39,35,31,92,79,52,29.94,29.89,29.82,10,10,10,6,2,,0.01,8,Rain,21
2013-10-16,53,46,38,42,38,36,93,76,60,30.08,30.02,29.91,10,10,10,7,3,,T,6,Rain,45
2013-10-17,48,43,37,43,38,34,89,82,72,29.96,29.80,29.70,10,10,10,5,2,,0.01,6,Rain,44
2013-10-18,57,45,33,37,32,27,89,66,25,29.70,29.60,29.57,10,10,10,8,3,,0.00,5,,29
2013-10-19,57,44,31,34,30,26,85,60,31,29.57,29.43,29.30,10,10,10,12,5,,T,5,Rain,57
2013-10-20,47,37,26,33,30,27,92,76,46,29.89,29.75,29.58,10,10,10,13,2,20,0.00,5,,33
2013-10-21,39,31,23,28,25,21,89,80,53,30.11,30.01,29.90,10,10,10,5,2,,0.00,4,,18
2013-10-22,40,31,21,27,23,19,88,76,42,30.19,30.15,30.11,10,10,10,10,2,,0.00,4,,35
2013-10-23,30,26,21,25,23,18,88,84,74,30.16,29.98,29.86,10,10,7,5,1,,0.00,6,Snow,147
2013-10-24,37,29,21,24,21,18,89,73,37,29.99,29.86,29.70,10,10,7,10,5,,0.00,7,Snow,41
2013-10-25,43,32,21,24,22,20,85,68,42,30.17,29.90,29.73,10,10,10,7,3,,0.00,5,,66
2013-10-26,36,26,16,24,19,13,88,78,50,30.51,30.41,30.20,10,10,10,8,3,,0.00,3,,29
2013-10-27,43,36,29,36,26,21,89,65,45,30.31,30.01,29.65,10,10,10,10,6,,0.00,7,Rain,30
2013-10-28,51,45,38,38,36,34,89,77,58,29.62,29.25,29.02,10,10,10,10,7,,0.05,7,Rain,24
2013-10-29,40,33,25,37,31,22,93,85,67,29.52,29.44,29.27,10,9,6,15,5,22,0.16,7,Rain-Snow,219
2013-10-30,33,29,24,28,25,22,89,83,75,29.47,29.29,29.19,10,10,10,8,5,,0.00,5,,39
2013-10-31,29,24,18,25,21,15,89,87,81,29.70,29.47,29.28,10,5,0,5,1,,0.03,7,Fog-Snow,78